Time;durP1;ratioP1;P1;durP2;ratioP2;P2;SDS_P1;SDS_P2;PMS_P1;PMS_P2;Temp;Humidity;BMP_temperature;BMP_pressure;BME280_temperature;BME280_humidity;BME280_pressure;Samples;Min_cycle;Max_cycle;Signal;HPM_P1;HPM_P2
2022/03/27 00:00:28;;;;;;;29.75;17.95;;;;;;;9.43;43.95;101174.53;5001946;28;20049;-72
2022/03/27 00:02:54;;;;;;;37.03;18.38;;;;;;;9.38;44.19;101177.06;5001359;28;20466;-73
2022/03/27 00:05:19;;;;;;;27.17;17.45;;;;;;;9.38;44.19;101170.97;5002213;28;20149;-73
2022/03/27 00:07:45;;;;;;;30.60;19.08;;;;;;;9.17;44.75;101163.59;5000905;28;20494;-74
2022/03/27 00:10:10;;;;;;;30.88;19.95;;;;;;;9.38;44.60;101160.47;5001240;28;20054;-74
2022/03/27 00:12:36;;;;;;;27.73;18.95;;;;;;;9.37;44.50;101169.22;5002078;28;20033;-74
2022/03/27 00:15:04;;;;;;;27.50;20.10;;;;;;;9.40;44.27;101170.13;5001149;28;20034;-74
2022/03/27 00:17:32;;;;;;;27.60;19.63;;;;;;;9.24;44.78;101150.66;5001658;28;20052;-74
2022/03/27 00:19:59;;;;;;;29.70;19.55;;;;;;;9.23;44.48;101158.50;5001851;28;20729;-74
2022/03/27 00:22:26;;;;;;;26.95;19.27;;;;;;;9.36;44.50;101159.56;5001822;28;20050;-73
2022/03/27 00:24:51;;;;;;;47.50;22.95;;;;;;;9.45;44.17;101157.09;5000492;28;20061;-74
2022/03/27 00:27:17;;;;;;;29.88;18.90;;;;;;;9.39;44.41;101147.41;5002372;28;20034;-74
2022/03/27 00:29:42;;;;;;;24.85;18.95;;;;;;;9.18;44.87;101141.81;5001887;28;20909;-74
2022/03/27 00:32:08;;;;;;;24.27;18.52;;;;;;;9.01;44.86;101144.13;5001065;28;20038;-73
2022/03/27 00:34:33;;;;;;;27.23;19.25;;;;;;;9.03;45.23;101142.41;4997404;28;20034;-74
2022/03/27 00:36:59;;;;;;;26.10;18.15;;;;;;;8.97;45.21;101145.81;5000661;28;20457;-74
2022/03/27 00:39:24;;;;;;;23.70;17.35;;;;;;;9.13;44.82;101146.06;5002107;28;20060;-75
2022/03/27 00:41:51;;;;;;;25.92;18.00;;;;;;;8.99;45.36;101137.97;5001590;28;20046;-75
2022/03/27 00:44:17;;;;;;;28.20;19.67;;;;;;;8.86;45.19;101129.03;5000809;28;20046;-74
2022/03/27 00:46:43;;;;;;;24.58;19.15;;;;;;;8.82;45.32;101127.19;4999331;28;20076;-73
2022/03/27 00:49:09;;;;;;;26.30;19.70;;;;;;;8.88;45.18;101135.19;5001290;28;20104;-74
2022/03/27 00:51:34;;;;;;;29.63;21.15;;;;;;;8.82;45.17;101122.84;4997943;28;20026;-73
2022/03/27 00:54:00;;;;;;;34.78;20.25;;;;;;;8.64;45.66;101118.16;5000719;28;20061;-73
2022/03/27 00:56:25;;;;;;;25.90;19.48;;;;;;;8.78;45.61;101125.38;4998998;28;20135;-73
2022/03/27 00:58:51;;;;;;;27.08;19.00;;;;;;;8.83;45.25;101106.31;5001053;28;20152;-74
2022/03/27 01:01:22;;;;;;;41.75;20.35;;;;;;;8.87;45.09;101130.78;5000863;28;20445;-73
2022/03/27 01:03:48;;;;;;;23.33;17.13;;;;;;;8.68;45.63;101113.84;4998736;28;20073;-72
2022/03/27 01:06:30;;;;;;;25.63;19.75;;;;;;;8.76;45.35;101112.28;4999187;28;20026;-75
2022/03/27 01:11:41;;;;;;;32.28;20.95;;;;;;;8.58;45.37;101110.19;4999372;28;20072;-74
2022/03/27 01:14:07;;;;;;;30.08;19.95;;;;;;;8.55;45.52;101112.75;5000152;28;20046;-72
2022/03/27 01:16:40;;;;;;;24.90;19.38;;;;;;;8.44;45.72;101107.28;4999521;28;20060;-73
2022/03/27 01:19:08;;;;;;;28.58;21.42;;;;;;;8.57;45.76;101118.00;4999333;28;20057;-73
2022/03/27 01:21:36;;;;;;;32.47;19.45;;;;;;;8.81;45.20;101128.94;4999285;28;20310;-73
2022/03/27 01:24:03;;;;;;;23.90;21.13;;;;;;;8.79;45.33;101121.91;4999306;28;20402;-73
2022/03/27 01:26:29;;;;;;;27.88;20.08;;;;;;;8.83;45.09;101129.84;4999411;28;20042;-73
2022/03/27 01:28:56;;;;;;;33.08;22.70;;;;;;;8.81;44.61;101118.47;4999214;28;20390;-73
2022/03/27 01:31:23;;;;;;;28.08;20.92;;;;;;;8.88;44.67;101125.56;4998658;28;20153;-73
2022/03/27 01:33:48;;;;;;;25.95;19.85;;;;;;;8.77;44.90;101123.63;5000116;28;20244;-73
2022/03/27 01:36:22;;;;;;;28.77;20.10;;;;;;;8.64;45.02;101128.63;4996174;28;20129;-73
2022/03/27 01:38:48;;;;;;;28.20;22.15;;;;;;;8.87;44.47;101113.38;4999181;28;20074;-72
2022/03/27 01:41:13;;;;;;;30.90;22.73;;;;;;;8.74;45.25;101113.97;4998580;28;20053;-73
2022/03/27 01:43:40;;;;;;;28.75;22.33;;;;;;;8.71;44.98;101123.50;4998955;28;20049;-73
2022/03/27 01:46:06;;;;;;;35.97;22.38;;;;;;;8.63;45.01;101113.75;4997371;28;20038;-73
2022/03/27 01:48:32;;;;;;;31.42;19.63;;;;;;;8.62;45.52;101117.25;4998460;28;20556;-73
2022/03/27 01:50:59;;;;;;;26.35;22.02;;;;;;;8.70;45.04;101117.38;4997248;28;20472;-72
2022/03/27 01:53:24;;;;;;;27.67;21.88;;;;;;;8.81;44.95;101125.44;4998257;28;20049;-74
2022/03/27 01:55:50;;;;;;;35.90;24.13;;;;;;;8.69;45.55;101127.84;4998536;28;20037;-72
2022/03/27 01:58:16;;;;;;;44.70;22.65;;;;;;;8.52;45.58;101115.31;4998984;28;20588;-74
2022/03/27 02:00:43;;;;;;;30.88;22.48;;;;;;;8.66;45.07;101110.31;4999488;28;20117;-74
2022/03/27 02:03:09;;;;;;;33.33;21.40;;;;;;;8.57;45.24;101115.38;4998313;28;20425;-74
2022/03/27 02:05:35;;;;;;;35.15;19.67;;;;;;;8.63;45.19;101102.44;4998507;28;20038;-73
2022/03/27 02:08:01;;;;;;;29.48;20.65;;;;;;;8.71;45.10;101105.19;4998577;28;20038;-73
2022/03/27 02:10:26;;;;;;;24.52;18.95;;;;;;;8.74;44.86;101097.41;4998755;28;20481;-74
2022/03/27 02:12:52;;;;;;;26.52;20.40;;;;;;;8.72;45.19;101102.59;4999557;28;20042;-74
2022/03/27 02:15:17;;;;;;;29.98;19.95;;;;;;;8.84;44.91;101110.66;4998824;28;20026;-73
2022/03/27 02:17:43;;;;;;;29.95;19.92;;;;;;;8.61;45.54;101101.50;4998033;28;20038;-74
2022/03/27 02:20:09;;;;;;;29.73;19.80;;;;;;;8.68;45.18;101112.97;4998004;28;20053;-73
2022/03/27 02:22:34;;;;;;;35.65;20.08;;;;;;;8.81;44.84;101096.66;4999102;28;20049;-73
2022/03/27 02:25:00;;;;;;;23.33;18.50;;;;;;;8.75;45.35;101110.50;4998925;28;20030;-73
2022/03/27 02:27:25;;;;;;;32.00;18.85;;;;;;;8.70;45.28;101106.91;4999527;28;20439;-73
2022/03/27 02:29:52;;;;;;;29.25;19.27;;;;;;;8.83;44.76;101108.91;4997537;28;20050;-73
2022/03/27 02:32:18;;;;;;;33.05;19.80;;;;;;;8.74;45.19;101102.63;4998378;28;20034;-75
2022/03/27 02:34:43;;;;;;;26.67;20.33;;;;;;;8.72;45.09;101099.97;4994750;28;20056;-73
2022/03/27 02:37:09;;;;;;;30.73;18.48;;;;;;;8.70;45.17;101116.50;4998873;28;20437;-73
2022/03/27 02:39:34;;;;;;;28.67;19.20;;;;;;;8.60;45.49;101112.84;4999227;28;20695;-73
2022/03/27 02:42:01;;;;;;;26.23;19.65;;;;;;;8.73;45.48;101111.31;4998003;28;20050;-73
2022/03/27 02:44:27;;;;;;;27.45;19.77;;;;;;;8.73;45.10;101098.25;4997363;28;20045;-73
2022/03/27 02:46:52;;;;;;;31.42;21.38;;;;;;;8.75;44.91;101117.47;4997379;28;20832;-74
2022/03/27 02:49:18;;;;;;;26.05;18.77;;;;;;;8.86;44.83;101121.19;4998583;28;20052;-74
2022/03/27 02:51:45;;;;;;;26.33;20.08;;;;;;;8.55;45.78;101107.53;4998035;28;20033;-74
2022/03/27 02:54:12;;;;;;;28.95;20.73;;;;;;;8.75;45.21;101125.31;4998074;28;20079;-74
2022/03/27 02:56:38;;;;;;;34.45;20.30;;;;;;;8.64;44.74;101112.94;4997334;28;20056;-74
2022/03/27 02:59:04;;;;;;;26.10;19.73;;;;;;;8.65;44.96;101122.53;4998138;28;20041;-74
2022/03/27 03:01:31;;;;;;;31.30;19.77;;;;;;;8.64;45.09;101123.41;5000398;28;20410;-74
2022/03/27 03:03:56;;;;;;;25.77;19.55;;;;;;;8.65;45.05;101121.66;5002526;28;20046;-73
2022/03/27 03:06:24;;;;;;;25.38;19.48;;;;;;;8.80;44.83;101124.56;5003217;28;20034;-74
2022/03/27 03:08:50;;;;;;;31.88;21.05;;;;;;;8.60;45.16;101125.91;5001869;28;21449;-73
2022/03/27 03:11:16;;;;;;;30.17;20.05;;;;;;;8.64;45.09;101133.84;5002626;28;20057;-74
2022/03/27 03:13:43;;;;;;;25.77;19.48;;;;;;;8.55;45.41;101138.91;5002755;28;20081;-74
2022/03/27 03:16:09;;;;;;;45.22;21.05;;;;;;;8.48;45.67;101136.16;5000323;28;20068;-74
2022/03/27 03:18:35;;;;;;;28.25;21.95;;;;;;;8.61;45.54;101127.66;5002075;28;20454;-74
2022/03/27 03:21:01;;;;;;;31.95;20.67;;;;;;;8.52;45.39;101130.09;5000235;28;20057;-73
2022/03/27 03:23:28;;;;;;;30.58;21.88;;;;;;;8.58;45.52;101131.09;5002414;28;20045;-72
2022/03/27 03:25:55;;;;;;;29.50;22.02;;;;;;;8.66;45.13;101140.00;5002121;28;20091;-72
2022/03/27 03:28:20;;;;;;;37.22;23.98;;;;;;;8.74;44.77;101131.41;5002330;28;20045;-73
2022/03/27 03:30:46;;;;;;;33.58;21.98;;;;;;;8.33;45.77;101131.44;5002556;28;20042;-74
2022/03/27 03:33:12;;;;;;;29.33;22.27;;;;;;;8.55;45.14;101130.19;5002220;28;20065;-73
2022/03/27 03:35:39;;;;;;;31.17;22.67;;;;;;;8.53;45.25;101137.13;4994729;28;20041;-74
2022/03/27 03:38:05;;;;;;;29.58;23.13;;;;;;;8.57;45.07;101131.97;5002894;28;20045;-73
2022/03/27 03:40:31;;;;;;;29.88;22.95;;;;;;;8.53;45.62;101140.59;5001101;28;20053;-73
2022/03/27 03:42:56;;;;;;;29.75;22.17;;;;;;;8.55;45.31;101145.88;5001733;28;20037;-74
2022/03/27 03:45:22;;;;;;;30.52;23.80;;;;;;;8.57;45.23;101139.81;5002034;28;20033;-74
2022/03/27 03:47:47;;;;;;;35.90;23.67;;;;;;;8.38;45.65;101138.53;5001392;28;20508;-74
2022/03/27 03:50:13;;;;;;;35.75;25.42;;;;;;;8.49;45.23;101149.22;5001598;28;20041;-74
2022/03/27 03:52:39;;;;;;;36.92;23.20;;;;;;;8.41;45.26;101141.25;5002142;28;20482;-73
2022/03/27 03:55:05;;;;;;;29.42;23.80;;;;;;;8.40;45.38;101151.66;5001338;28;20140;-73
2022/03/27 03:57:31;;;;;;;36.28;24.33;;;;;;;8.52;45.43;101157.16;5001722;28;20030;-74
2022/03/27 03:59:57;;;;;;;34.30;23.83;;;;;;;8.74;45.24;101160.19;5000606;28;20042;-74
2022/03/27 04:02:22;;;;;;;34.13;25.67;;;;;;;8.49;45.36;101149.22;4999901;28;20046;-73
2022/03/27 04:04:48;;;;;;;44.50;25.27;;;;;;;8.62;45.57;101159.09;5001870;28;20080;-73
2022/03/27 04:07:14;;;;;;;51.58;24.73;;;;;;;8.59;45.91;101150.28;5001697;28;20089;-74
2022/03/27 04:09:39;;;;;;;36.42;25.58;;;;;;;8.51;45.52;101152.78;5000143;28;20044;-74
2022/03/27 04:12:05;;;;;;;36.42;25.67;;;;;;;8.62;45.03;101155.59;5001155;28;20042;-73
2022/03/27 04:14:34;;;;;;;37.42;24.70;;;;;;;8.58;44.92;101166.84;5001549;28;20452;-74
2022/03/27 04:17:00;;;;;;;38.17;25.60;;;;;;;8.66;45.10;101163.56;5001738;28;20077;-72
2022/03/27 04:19:27;;;;;;;31.27;23.95;;;;;;;8.42;45.17;101166.53;5000085;28;20096;-73
2022/03/27 04:21:52;;;;;;;41.85;26.17;;;;;;;8.45;45.82;101164.00;5000342;28;20032;-73
2022/03/27 04:24:18;;;;;;;35.70;23.42;;;;;;;8.39;46.06;101173.41;5001450;28;20049;-75
2022/03/27 04:26:43;;;;;;;37.60;26.35;;;;;;;8.50;45.74;101177.16;5000008;28;20146;-74
2022/03/27 04:29:10;;;;;;;34.55;24.00;;;;;;;8.69;45.68;101191.50;5001156;28;20092;-73
2022/03/27 04:31:36;;;;;;;35.58;25.73;;;;;;;8.70;46.58;101167.09;5000901;28;20050;-73
2022/03/27 04:34:02;;;;;;;39.22;24.27;;;;;;;8.87;45.85;101185.72;5001002;28;20028;-75
2022/03/27 04:36:27;;;;;;;41.50;25.40;;;;;;;8.97;45.84;101179.84;4997684;28;20561;-73
2022/03/27 04:38:53;;;;;;;40.40;25.65;;;;;;;8.69;45.47;101169.69;5001056;28;20513;-73
2022/03/27 04:41:18;;;;;;;60.53;26.55;;;;;;;8.97;45.57;101176.34;5000340;28;20054;-73
2022/03/27 04:43:47;;;;;;;50.03;25.88;;;;;;;8.99;45.82;101172.91;4999602;28;20755;-73
2022/03/27 04:46:13;;;;;;;31.83;27.00;;;;;;;8.98;45.63;101162.41;5000297;28;20536;-72
2022/03/27 04:48:39;;;;;;;42.38;26.95;;;;;;;9.17;45.02;101181.94;5000185;28;20498;-73
2022/03/27 04:51:06;;;;;;;34.10;25.63;;;;;;;8.76;44.98;101188.16;5000716;28;20034;-74
2022/03/27 04:53:31;;;;;;;39.88;27.52;;;;;;;8.88;45.53;101185.78;5000573;28;20045;-73
2022/03/27 04:55:56;;;;;;;38.72;26.55;;;;;;;9.09;45.45;101198.38;5000324;28;20041;-75
2022/03/27 04:58:22;;;;;;;38.05;26.40;;;;;;;9.07;44.86;101200.09;5000008;28;20125;-75
2022/03/27 05:00:49;;;;;;;43.88;28.83;;;;;;;9.11;44.66;101189.66;4999952;28;20517;-74
2022/03/27 05:03:15;;;;;;;36.75;25.20;;;;;;;9.10;44.67;101201.88;4999731;28;20045;-74
2022/03/27 05:05:41;;;;;;;41.50;28.30;;;;;;;9.09;46.23;101200.13;4999244;28;20045;-74
2022/03/27 05:08:07;;;;;;;41.63;27.65;;;;;;;9.10;44.72;101204.50;4999913;28;20038;-74
2022/03/27 05:10:33;;;;;;;32.88;27.48;;;;;;;9.11;44.90;101201.06;4999435;28;20054;-75
2022/03/27 05:12:58;;;;;;;36.95;25.85;;;;;;;9.02;44.70;101199.13;4999530;28;20140;-74
2022/03/27 05:15:24;;;;;;;33.65;28.67;;;;;;;9.09;44.38;101208.00;5000920;28;22491;-74
2022/03/27 05:17:58;;;;;;;37.03;27.20;;;;;;;8.92;44.46;101194.59;4999456;28;20050;-74
2022/03/27 05:20:24;;;;;;;43.20;30.75;;;;;;;8.85;44.78;101193.56;5000386;28;20132;-74
2022/03/27 05:22:51;;;;;;;40.58;27.52;;;;;;;9.13;44.35;101211.53;4998604;28;20058;-75
2022/03/27 05:25:18;;;;;;;38.20;27.92;;;;;;;9.00;44.07;101206.06;5000222;28;20058;-73
2022/03/27 05:27:47;;;;;;;38.05;27.70;;;;;;;9.08;44.34;101220.19;5000422;28;20034;-73
2022/03/27 05:30:15;;;;;;;38.28;26.58;;;;;;;9.24;44.19;101216.09;4998736;28;20382;-74
2022/03/27 05:32:41;;;;;;;38.30;27.08;;;;;;;9.13;45.30;101206.28;5000703;28;20450;-74
2022/03/27 05:35:07;;;;;;;45.55;25.63;;;;;;;9.18;44.74;101210.78;4994632;28;20044;-73
2022/03/27 05:37:38;;;;;;;37.03;26.48;;;;;;;9.34;44.78;101219.81;4999305;28;20124;-73
2022/03/27 05:40:06;;;;;;;39.63;26.30;;;;;;;10.06;43.01;101206.97;4998919;28;20104;-73
2022/03/27 05:42:32;;;;;;;56.67;27.60;;;;;;;10.44;42.58;101206.66;4999829;28;20947;-73
2022/03/27 05:44:57;;;;;;;35.40;26.05;;;;;;;9.88;42.87;101218.97;4999184;28;20056;-73
2022/03/27 05:47:23;;;;;;;35.20;25.98;;;;;;;10.41;42.01;101228.50;4999456;28;20046;-74
2022/03/27 05:49:48;;;;;;;43.78;26.55;;;;;;;10.85;41.35;101214.19;4998789;28;20050;-74
2022/03/27 05:52:16;;;;;;;36.60;27.63;;;;;;;11.45;39.51;101230.59;4998496;28;20053;-74
2022/03/27 05:54:42;;;;;;;43.25;27.88;;;;;;;11.89;39.27;101235.38;5000265;28;20026;-74
2022/03/27 05:57:07;;;;;;;40.85;26.58;;;;;;;12.10;39.32;101230.28;4998909;28;20060;-73
2022/03/27 05:59:33;;;;;;;46.20;26.35;;;;;;;12.56;38.34;101225.28;4999857;28;20030;-73
2022/03/27 06:01:58;;;;;;;43.92;25.88;;;;;;;12.96;39.03;101228.09;4997922;28;20125;-73
2022/03/27 06:04:24;;;;;;;34.67;25.98;;;;;;;12.77;38.27;101227.16;4998449;28;20057;-73
2022/03/27 06:06:50;;;;;;;41.15;26.52;;;;;;;12.38;38.25;101225.19;4980792;28;20045;-73
2022/03/27 06:09:16;;;;;;;38.10;25.25;;;;;;;12.94;37.05;101224.56;5000068;28;20083;-73
2022/03/27 06:11:41;;;;;;;41.10;27.65;;;;;;;12.88;37.44;101214.91;4999071;28;20038;-74
2022/03/27 06:14:06;;;;;;;35.08;26.75;;;;;;;12.74;37.64;101216.59;4998504;28;20038;-74
2022/03/27 06:16:32;;;;;;;33.85;25.23;;;;;;;12.57;38.03;101218.28;4999912;28;20049;-74
2022/03/27 06:18:58;;;;;;;43.22;25.85;;;;;;;12.41;37.54;101223.47;4998956;28;20462;-74
2022/03/27 06:21:23;;;;;;;41.50;26.05;;;;;;;12.41;37.56;101225.22;4999925;28;20450;-74
2022/03/27 06:23:49;;;;;;;29.48;22.60;;;;;;;12.04;37.99;101214.47;5000430;28;20498;-74
2022/03/27 06:26:14;;;;;;;35.15;23.58;;;;;;;11.98;37.70;101223.19;5005260;28;20030;-74
2022/03/27 06:28:40;;;;;;;36.15;22.80;;;;;;;12.52;38.11;101205.09;5004775;28;20079;-73
2022/03/27 06:31:06;;;;;;;38.72;23.88;;;;;;;12.66;37.17;101210.41;5001607;28;20026;-74
2022/03/27 06:33:31;;;;;;;35.05;20.70;;;;;;;12.67;37.21;101210.44;5007293;28;20506;-73
2022/03/27 06:35:56;;;;;;;35.25;24.27;;;;;;;12.70;37.40;101208.69;5010397;28;20389;-74
2022/03/27 06:45:19;;;;;;;30.08;22.05;;;;;;;13.00;36.53;101221.97;5002221;28;20041;-74
2022/03/27 06:47:45;;;;;;;50.58;23.98;;;;;;;12.88;37.10;101221.94;5000248;28;20112;-74
2022/03/27 06:50:12;;;;;;;32.10;22.60;;;;;;;12.83;36.38;101240.34;5006345;28;20470;-74
2022/03/27 06:52:38;;;;;;;28.95;22.80;;;;;;;12.99;36.72;101230.72;5006358;28;20084;-73
2022/03/27 06:55:05;;;;;;;32.35;22.95;;;;;;;13.33;35.81;101222.94;5002608;28;20037;-73
2022/03/27 06:57:31;;;;;;;29.30;21.98;;;;;;;13.07;35.87;101233.41;5007472;28;20378;-74
2022/03/27 07:03:09;;;;;;;30.75;22.80;;;;;;;13.02;36.52;101248.31;5003053;28;20143;-74
2022/03/27 07:05:38;;;;;;;38.08;25.15;;;;;;;13.04;36.03;101251.81;4999633;28;20042;-74
2022/03/27 07:08:08;;;;;;;27.98;22.30;;;;;;;13.05;36.43;101256.22;5001892;28;20049;-75
2022/03/27 07:10:36;;;;;;;41.38;24.33;;;;;;;13.09;36.47;101265.91;5003942;28;20069;-75
2022/03/27 07:13:35;;;;;;;31.30;21.75;;;;;;;13.31;36.17;101272.16;5008182;28;20026;-73
2022/03/27 07:16:00;;;;;;;30.83;23.30;;;;;;;13.45;36.33;101270.41;5002965;28;20030;-74
2022/03/27 07:18:26;;;;;;;32.10;23.20;;;;;;;13.63;35.64;101269.59;5006070;28;20370;-74
2022/03/27 07:20:51;;;;;;;45.78;23.60;;;;;;;13.51;36.18;101265.16;5005550;28;20045;-74
2022/03/27 07:23:20;;;;;;;40.95;24.67;;;;;;;13.64;36.04;101279.25;5001096;28;20104;-74
2022/03/27 07:25:48;;;;;;;40.08;26.30;;;;;;;13.82;35.57;101278.38;4998471;28;20113;-75
2022/03/27 07:28:15;;;;;;;32.00;22.73;;;;;;;13.98;35.81;101281.91;4999476;28;20050;-75
2022/03/27 07:30:44;;;;;;;37.00;22.33;;;;;;;14.13;35.47;101281.03;4999317;28;20090;-74
2022/03/27 07:33:10;;;;;;;36.65;24.38;;;;;;;14.21;35.12;101288.94;4997306;28;20129;-74
2022/03/27 07:35:36;;;;;;;49.10;23.33;;;;;;;14.22;35.58;101290.69;4994669;28;20478;-74
2022/03/27 07:38:03;;;;;;;39.78;24.17;;;;;;;14.29;35.31;101289.81;4997567;28;20061;-74
2022/03/27 07:40:28;;;;;;;34.42;23.80;;;;;;;14.39;35.27;101288.03;4997538;28;20445;-74
2022/03/27 07:42:54;;;;;;;54.42;27.55;;;;;;;14.47;35.47;101288.88;4999951;28;20092;-74
2022/03/27 07:45:24;;;;;;;39.35;23.88;;;;;;;14.51;35.16;101294.16;4998513;28;20033;-75
2022/03/27 07:47:51;;;;;;;28.73;22.80;;;;;;;14.62;35.32;101303.88;4999264;28;20053;-74
2022/03/27 07:50:18;;;;;;;42.13;25.52;;;;;;;14.58;35.35;101295.06;4999406;28;20049;-74
2022/03/27 07:52:47;;;;;;;31.15;22.63;;;;;;;14.94;34.62;101311.72;5001028;28;20050;-74
2022/03/27 07:55:15;;;;;;;35.58;23.00;;;;;;;15.24;34.33;101317.75;5001575;28;20050;-74
2022/03/27 07:57:42;;;;;;;35.80;22.08;;;;;;;15.20;34.43;101306.31;5002553;28;20017;-74
2022/03/27 08:00:10;;;;;;;30.85;18.02;;;;;;;15.23;35.25;101297.50;4999063;28;20050;-75
2022/03/27 08:02:40;;;;;;;26.75;14.55;;;;;;;15.48;32.25;101309.69;4996079;28;20050;-75
2022/03/27 08:05:06;;;;;;;27.33;16.40;;;;;;;15.81;32.28;101311.25;4980689;28;20034;-75
2022/03/27 08:07:32;;;;;;;21.55;15.00;;;;;;;15.87;32.09;101310.34;4999171;28;20034;-75
2022/03/27 08:10:20;;;;;;;27.30;12.63;;;;;;;15.81;32.64;101308.63;5010296;28;20030;-75
2022/03/27 08:12:46;;;;;;;20.05;12.05;;;;;;;15.78;33.13;101315.69;5006242;28;20033;-74
2022/03/27 08:15:12;;;;;;;18.67;12.10;;;;;;;16.11;31.49;101322.53;5004821;28;20481;-75
2022/03/27 08:17:38;;;;;;;14.77;11.98;;;;;;;16.20;30.56;101324.19;5005921;28;20049;-76
2022/03/27 08:23:46;;;;;;;27.33;13.25;;;;;;;16.22;31.40;101335.66;5012943;28;20072;-74
2022/03/27 08:28:56;;;;;;;22.85;12.35;;;;;;;16.17;32.41;101324.22;5010526;28;20060;-76
2022/03/27 08:31:21;;;;;;;20.35;12.98;;;;;;;16.24;32.02;101337.38;5015497;28;20041;-74
2022/03/27 08:33:48;;;;;;;21.77;11.25;;;;;;;16.46;32.01;101345.19;5010044;28;20532;-76
2022/03/27 08:36:13;;;;;;;18.50;13.63;;;;;;;15.83;33.88;101321.84;5003966;28;20069;-72
2022/03/27 08:38:46;;;;;;;26.75;15.35;;;;;;;16.28;34.06;101332.97;5006670;28;20080;-74
2022/03/27 08:41:15;;;;;;;25.98;15.88;;;;;;;16.36;34.25;101330.22;5005378;28;20042;-74
2022/03/27 08:43:43;;;;;;;33.58;20.50;;;;;;;16.76;34.05;101338.66;5001473;28;20474;-73
2022/03/27 08:46:11;;;;;;;39.72;22.73;;;;;;;16.70;33.21;101333.44;5008009;28;20038;-74
2022/03/27 08:48:37;;;;;;;46.58;24.05;;;;;;;16.54;33.55;101337.16;5004948;28;20050;-75
2022/03/27 08:51:34;;;;;;;32.67;23.25;;;;;;;16.08;34.68;101333.13;5007013;28;20038;-74
2022/03/27 08:54:05;;;;;;;27.80;21.15;;;;;;;16.35;33.94;101341.75;5006088;28;20048;-72
2022/03/27 08:56:33;;;;;;;33.90;20.95;;;;;;;16.09;34.98;101329.59;5000558;28;20049;-73
2022/03/27 08:59:04;;;;;;;32.45;19.17;;;;;;;16.02;34.84;101338.47;5003561;28;20545;-72
2022/03/27 09:01:30;;;;;;;29.02;21.38;;;;;;;16.14;35.13;101322.50;5004971;28;20038;-73
2022/03/27 09:03:56;;;;;;;27.60;19.83;;;;;;;16.27;35.15;101343.56;5008339;28;20112;-73
2022/03/27 09:06:22;;;;;;;36.20;19.63;;;;;;;16.40;34.90;101318.72;5006788;28;20105;-74
2022/03/27 09:08:53;;;;;;;32.63;17.88;;;;;;;16.16;34.09;101322.47;5005656;28;20038;-73
2022/03/27 09:11:20;;;;;;;24.83;19.33;;;;;;;16.11;34.76;101321.63;5020761;28;20045;-74
2022/03/27 09:13:50;;;;;;;28.20;19.88;;;;;;;16.42;34.59;101332.84;5002744;28;20069;-73
2022/03/27 09:16:17;;;;;;;35.22;20.52;;;;;;;16.12;35.66;101329.56;5006079;28;20046;-73
2022/03/27 09:18:52;;;;;;;27.00;19.90;;;;;;;15.77;36.74;101343.06;5003582;28;20029;-70
2022/03/27 09:24:48;;;;;;;27.08;18.95;;;;;;;16.68;36.18;101322.84;5008476;28;20049;-70
2022/03/27 09:27:15;;;;;;;31.92;19.25;;;;;;;16.81;35.31;101336.00;5001296;28;20061;-70
2022/03/27 09:30:06;;;;;;;26.20;18.35;;;;;;;16.82;35.30;101333.34;5002159;28;20115;-70
2022/03/27 09:32:36;;;;;;;20.92;17.38;;;;;;;16.85;36.68;101333.28;4995386;28;20045;-69
2022/03/27 09:35:06;;;;;;;29.80;17.13;;;;;;;16.90;37.23;101329.72;4994455;28;20038;-69
2022/03/27 09:37:34;;;;;;;27.98;18.42;;;;;;;17.08;36.11;101330.38;4995991;28;20056;-69
2022/03/27 09:40:00;;;;;;;25.17;16.58;;;;;;;17.05;36.02;101332.22;4999879;28;20117;-70
2022/03/27 09:42:26;;;;;;;26.10;15.63;;;;;;;16.98;36.87;101322.56;5003594;28;20393;-70
2022/03/27 09:45:44;;;;;;;21.15;16.33;;;;;;;16.57;36.21;101316.78;5006808;28;20121;-71
2022/03/27 09:48:10;;;;;;;27.60;16.95;;;;;;;17.51;34.50;101321.88;5005694;28;20084;-70
2022/03/27 09:50:37;;;;;;;22.80;16.83;;;;;;;17.51;35.94;101319.22;5002072;28;20064;-70
2022/03/27 09:53:22;;;;;;;21.35;14.73;;;;;;;17.38;36.67;101320.28;5006212;28;20095;-70
2022/03/27 09:55:59;;;;;;;26.15;16.65;;;;;;;16.36;38.86;101330.22;5000412;28;20482;-69
2022/03/27 09:58:44;;;;;;;29.05;16.77;;;;;;;17.21;37.76;101319.66;5009482;28;20113;-70
2022/03/27 10:01:17;;;;;;;22.48;17.15;;;;;;;17.32;37.48;101319.47;5005810;28;20329;-71
2022/03/27 10:03:55;;;;;;;26.58;18.80;;;;;;;17.20;37.23;101329.34;5005228;28;20026;-69
2022/03/27 10:06:43;;;;;;;21.52;17.17;;;;;;;17.19;37.60;101326.75;5007091;28;20062;-71
2022/03/27 10:09:12;;;;;;;21.40;16.02;;;;;;;17.25;37.31;101316.03;5002721;28;20108;-70
2022/03/27 10:12:21;;;;;;;23.77;18.42;;;;;;;17.15;38.59;101322.38;5005348;28;20041;-71
2022/03/27 10:14:47;;;;;;;25.92;16.42;;;;;;;17.04;37.12;101307.47;5004202;28;20042;-69
2022/03/27 10:17:14;;;;;;;29.05;16.90;;;;;;;17.70;37.35;101316.31;5007662;28;20095;-70
2022/03/27 10:20:27;;;;;;;23.38;17.30;;;;;;;17.41;36.97;101299.00;5006359;28;20045;-71
2022/03/27 10:23:39;;;;;;;30.50;16.92;;;;;;;18.13;36.26;101303.25;5012248;28;20048;-70
2022/03/27 10:26:12;;;;;;;30.77;17.15;;;;;;;17.65;36.81;101287.19;5006509;28;20041;-70
2022/03/27 10:29:52;;;;;;;23.70;16.42;;;;;;;16.97;36.83;101311.06;5089131;27;20583;-70
2022/03/27 10:32:19;;;;;;;27.55;15.77;;;;;;;17.69;37.17;101307.44;5093198;28;20115;-69
2022/03/27 10:35:14;;;;;;;20.58;16.40;;;;;;;17.82;36.45;101302.88;5093372;28;20119;-70
2022/03/27 10:38:00;;;;;;;17.38;13.55;;;;;;;21.31;35.02;101302.97;5087923;28;20040;-74
2022/03/27 10:40:47;;;;;;;28.42;16.48;;;;;;;18.83;34.37;101313.53;5085931;28;20044;-73
2022/03/27 10:43:25;;;;;;;16.33;12.07;;;;;;;20.99;35.16;101287.91;5083281;28;20040;-71
2022/03/27 10:46:12;;;;;;;23.95;13.85;;;;;;;21.49;32.87;101289.06;5067256;28;20028;-71
2022/03/27 10:52:07;;;;;;;17.90;13.27;;;;;;;21.99;31.84;101295.50;5079488;28;20495;-73
2022/03/27 10:54:57;;;;;;;16.23;13.45;;;;;;;22.00;31.18;101302.59;5067586;28;20032;-74
2022/03/27 10:57:38;;;;;;;24.05;13.85;;;;;;;21.83;31.19;101295.13;5071118;28;20040;-74
2022/03/27 11:00:06;;;;;;;26.40;17.35;;;;;;;19.04;32.64;101290.06;5087045;28;20128;-74
2022/03/27 11:02:45;;;;;;;17.60;14.63;;;;;;;19.40;32.88;101297.22;5063384;28;20080;-74
2022/03/27 11:05:37;;;;;;;25.67;16.30;;;;;;;20.07;31.94;101288.59;5071925;28;20040;-72
2022/03/27 11:15:09;;;;;;;23.20;17.13;;;;;;;19.65;32.35;101291.34;5058510;28;20070;-74
2022/03/27 11:18:12;;;;;;;24.08;16.17;;;;;;;19.24;33.68;101290.50;5079270;28;20036;-74
2022/03/27 11:24:35;;;;;;;21.08;12.40;;;;;;;22.23;32.40;101278.66;5076802;28;20447;-74
2022/03/27 11:27:52;;;;;;;25.95;14.80;;;;;;;21.31;31.55;101267.38;5084820;28;20040;-71
2022/03/27 11:33:39;;;;;;;26.30;16.27;;;;;;;18.96;32.97;101284.88;5049259;28;20044;-71
2022/03/27 11:36:07;;;;;;;18.85;14.68;;;;;;;20.20;32.52;101284.66;5049043;28;20373;-69
2022/03/27 11:39:08;;;;;;;23.92;17.42;;;;;;;19.00;33.80;101277.72;5041736;28;20049;-70
2022/03/27 11:41:44;;;;;;;20.52;15.32;;;;;;;18.25;34.48;101280.03;5017595;28;20038;-69
2022/03/27 11:47:20;;;;;;;17.95;11.93;;;;;;;20.71;32.40;101258.47;5029356;28;20048;-74
2022/03/27 11:59:52;;;;;;;16.88;13.57;;;;;;;19.55;34.90;101260.50;5036341;28;20052;-70
2022/03/27 12:02:22;;;;;;;24.17;16.10;;;;;;;20.34;32.77;101262.97;5038851;28;20470;-73
2022/03/27 12:04:57;;;;;;;47.63;18.20;;;;;;;20.34;32.87;101249.66;5023744;28;20107;-71
2022/03/27 12:07:24;;;;;;;25.10;15.27;;;;;;;20.25;32.15;101265.91;5003217;28;20068;-73
2022/03/27 12:10:19;;;;;;;41.30;17.60;;;;;;;20.80;34.01;101261.75;5019196;28;20025;-72
2022/03/27 12:12:58;;;;;;;38.13;16.85;;;;;;;21.80;30.89;101261.38;5013214;28;20037;-72
2022/03/27 12:15:52;;;;;;;31.05;16.27;;;;;;;20.82;32.10;101259.91;5046221;28;20048;-71
2022/03/27 12:18:31;;;;;;;21.08;13.63;;;;;;;20.23;32.44;101254.44;5057523;28;20129;-72